sensor_id;sensor_type;location;lat;lon;timestamp;pressure;altitude;pressure_sealevel;temperature;humidity
66681;BME280;53575;51.366;12.350;2023-05-23T00:02:16;99850.78;;;17.90;80.79
66681;BME280;53575;51.366;12.350;2023-05-23T00:04:41;99852.22;;;17.97;80.87
66681;BME280;53575;51.366;12.350;2023-05-23T00:07:07;99851.06;;;18.03;81.54
66681;BME280;53575;51.366;12.350;2023-05-23T00:09:32;99847.44;;;18.06;80.19
66681;BME280;53575;51.366;12.350;2023-05-23T00:11:58;99845.88;;;18.01;80.17
66681;BME280;53575;51.366;12.350;2023-05-23T00:14:24;99842.09;;;18.07;80.52
66681;BME280;53575;51.366;12.350;2023-05-23T00:16:49;99833.00;;;17.94;79.96
66681;BME280;53575;51.366;12.350;2023-05-23T00:19:16;99839.47;;;17.87;80.42
66681;BME280;53575;51.366;12.350;2023-05-23T00:21:42;99840.69;;;17.78;80.73
66681;BME280;53575;51.366;12.350;2023-05-23T00:24:08;99845.13;;;17.77;81.44
66681;BME280;53575;51.366;12.350;2023-05-23T00:26:37;99836.09;;;17.83;80.83
66681;BME280;53575;51.366;12.350;2023-05-23T00:29:03;99840.13;;;17.92;80.55
66681;BME280;53575;51.366;12.350;2023-05-23T00:31:28;99834.66;;;17.76;79.53
66681;BME280;53575;51.366;12.350;2023-05-23T00:33:54;99835.72;;;17.70;80.07
66681;BME280;53575;51.366;12.350;2023-05-23T00:36:19;99841.59;;;17.78;80.09
66681;BME280;53575;51.366;12.350;2023-05-23T00:38:46;99841.22;;;17.66;79.93
66681;BME280;53575;51.366;12.350;2023-05-23T00:41:12;99842.94;;;17.67;79.33
66681;BME280;53575;51.366;12.350;2023-05-23T00:43:37;99840.22;;;17.68;78.40
66681;BME280;53575;51.366;12.350;2023-05-23T00:46:03;99843.97;;;17.63;78.62
66681;BME280;53575;51.366;12.350;2023-05-23T00:48:29;99835.78;;;17.69;78.14
66681;BME280;53575;51.366;12.350;2023-05-23T00:50:55;99840.44;;;17.64;78.49
66681;BME280;53575;51.366;12.350;2023-05-23T00:53:21;99838.06;;;17.78;77.87
66681;BME280;53575;51.366;12.350;2023-05-23T00:55:47;99843.22;;;17.81;77.86
66681;BME280;53575;51.366;12.350;2023-05-23T00:58:13;99841.81;;;17.72;77.51
66681;BME280;53575;51.366;12.350;2023-05-23T01:00:40;99845.59;;;17.67;77.63
66681;BME280;53575;51.366;12.350;2023-05-23T01:03:06;99843.97;;;17.63;80.24
66681;BME280;53575;51.366;12.350;2023-05-23T01:05:32;99841.81;;;17.72;80.62
66681;BME280;53575;51.366;12.350;2023-05-23T01:07:58;99842.78;;;17.70;83.05
66681;BME280;53575;51.366;12.350;2023-05-23T01:10:25;99828.78;;;17.47;83.90
66681;BME280;53575;51.366;12.350;2023-05-23T01:13:15;99809.19;;;17.33;86.39
66681;BME280;53575;51.366;12.350;2023-05-23T01:18:18;99806.56;;;17.11;88.32
66681;BME280;53575;51.366;12.350;2023-05-23T01:20:54;99806.91;;;17.23;88.69
66681;BME280;53575;51.366;12.350;2023-05-23T01:29:37;99832.66;;;17.18;89.15
66681;BME280;53575;51.366;12.350;2023-05-23T01:32:06;99827.25;;;17.21;87.92
66681;BME280;53575;51.366;12.350;2023-05-23T01:34:35;99838.44;;;17.06;88.83
66681;BME280;53575;51.366;12.350;2023-05-23T01:37:01;99845.66;;;17.01;89.54
66681;BME280;53575;51.366;12.350;2023-05-23T01:39:26;99846.88;;;16.92;90.46
66681;BME280;53575;51.366;12.350;2023-05-23T01:41:52;99847.94;;;16.88;89.95
66681;BME280;53575;51.366;12.350;2023-05-23T01:44:19;99845.28;;;16.88;90.89
66681;BME280;53575;51.366;12.350;2023-05-23T01:46:45;99848.97;;;16.84;90.23
66681;BME280;53575;51.366;12.350;2023-05-23T01:49:13;99848.72;;;16.90;89.95
66681;BME280;53575;51.366;12.350;2023-05-23T01:51:39;99855.84;;;16.88;90.26
66681;BME280;53575;51.366;12.350;2023-05-23T01:54:05;99858.25;;;16.94;90.72
66681;BME280;53575;51.366;12.350;2023-05-23T01:56:32;99857.75;;;16.85;92.52
66681;BME280;53575;51.366;12.350;2023-05-23T01:58:57;99851.94;;;16.75;93.71
66681;BME280;53575;51.366;12.350;2023-05-23T02:01:23;99851.13;;;16.73;95.27
66681;BME280;53575;51.366;12.350;2023-05-23T02:03:48;99851.25;;;16.70;96.93
66681;BME280;53575;51.366;12.350;2023-05-23T02:06:14;99843.53;;;16.65;97.85
66681;BME280;53575;51.366;12.350;2023-05-23T02:08:39;99856.22;;;16.79;98.31
66681;BME280;53575;51.366;12.350;2023-05-23T02:11:05;99850.13;;;16.77;98.88
66681;BME280;53575;51.366;12.350;2023-05-23T02:13:33;99852.69;;;16.78;99.28
66681;BME280;53575;51.366;12.350;2023-05-23T02:15:58;99846.09;;;16.67;100.00
66681;BME280;53575;51.366;12.350;2023-05-23T02:18:24;99847.19;;;16.61;100.00
66681;BME280;53575;51.366;12.350;2023-05-23T02:20:50;99849.75;;;16.63;100.00
66681;BME280;53575;51.366;12.350;2023-05-23T02:23:16;99842.09;;;16.56;100.00
66681;BME280;53575;51.366;12.350;2023-05-23T02:25:41;99840.81;;;16.67;100.00
66681;BME280;53575;51.366;12.350;2023-05-23T02:28:06;99843.63;;;16.62;100.00
66681;BME280;53575;51.366;12.350;2023-05-23T02:30:32;99851.25;;;16.70;100.00
66681;BME280;53575;51.366;12.350;2023-05-23T02:32:57;99854.16;;;16.64;100.00
66681;BME280;53575;51.366;12.350;2023-05-23T02:35:23;99853.16;;;16.66;100.00
66681;BME280;53575;51.366;12.350;2023-05-23T02:37:48;99850.28;;;16.72;100.00
66681;BME280;53575;51.366;12.350;2023-05-23T02:40:13;99851.38;;;16.67;100.00
66681;BME280;53575;51.366;12.350;2023-05-23T02:42:39;99850.31;;;16.71;100.00
66681;BME280;53575;51.366;12.350;2023-05-23T02:45:05;99858.50;;;16.65;100.00
66681;BME280;53575;51.366;12.350;2023-05-23T02:47:30;99849.75;;;16.63;100.00
66681;BME280;53575;51.366;12.350;2023-05-23T02:49:56;99853.84;;;16.71;100.00
66681;BME280;53575;51.366;12.350;2023-05-23T02:52:21;99855.75;;;16.68;100.00
66681;BME280;53575;51.366;12.350;2023-05-23T02:54:47;99865.47;;;16.66;100.00
66681;BME280;53575;51.366;12.350;2023-05-23T02:57:12;99853.78;;;16.73;100.00
66681;BME280;53575;51.366;12.350;2023-05-23T02:59:38;99853.75;;;16.74;100.00
66681;BME280;53575;51.366;12.350;2023-05-23T03:02:03;99853.09;;;16.68;100.00
66681;BME280;53575;51.366;12.350;2023-05-23T03:04:28;99863.59;;;16.69;100.00
66681;BME280;53575;51.366;12.350;2023-05-23T03:06:54;99850.88;;;16.57;100.00
66681;BME280;53575;51.366;12.350;2023-05-23T03:09:19;99855.03;;;16.63;100.00
66681;BME280;53575;51.366;12.350;2023-05-23T03:11:45;99861.03;;;16.68;100.00
66681;BME280;53575;51.366;12.350;2023-05-23T03:14:11;99856.72;;;16.65;100.00
66681;BME280;53575;51.366;12.350;2023-05-23T03:16:36;99858.69;;;16.60;100.00
66681;BME280;53575;51.366;12.350;2023-05-23T03:19:02;99862.94;;;16.63;100.00
66681;BME280;53575;51.366;12.350;2023-05-23T03:21:29;99866.59;;;16.60;100.00
66681;BME280;53575;51.366;12.350;2023-05-23T03:23:55;99866.69;;;16.57;100.00
66681;BME280;53575;51.366;12.350;2023-05-23T03:26:20;99860.28;;;16.64;100.00
66681;BME280;53575;51.366;12.350;2023-05-23T03:28:47;99870.25;;;16.56;100.00
66681;BME280;53575;51.366;12.350;2023-05-23T03:31:13;99865.09;;;16.53;100.00
66681;BME280;53575;51.366;12.350;2023-05-23T03:33:38;99865.84;;;16.56;100.00
66681;BME280;53575;51.366;12.350;2023-05-23T03:36:04;99869.34;;;16.57;100.00
66681;BME280;53575;51.366;12.350;2023-05-23T03:38:30;99865.28;;;16.48;100.00
66681;BME280;53575;51.366;12.350;2023-05-23T03:40:55;99882.72;;;16.52;100.00
66681;BME280;53575;51.366;12.350;2023-05-23T03:43:20;99883.78;;;16.47;100.00
66681;BME280;53575;51.366;12.350;2023-05-23T03:45:46;99882.09;;;16.44;100.00
66681;BME280;53575;51.366;12.350;2023-05-23T03:48:11;99879.59;;;16.41;100.00
66681;BME280;53575;51.366;12.350;2023-05-23T03:50:37;99888.25;;;16.45;100.00
66681;BME280;53575;51.366;12.350;2023-05-23T03:53:02;99887.38;;;16.44;100.00
66681;BME280;53575;51.366;12.350;2023-05-23T03:55:27;99883.75;;;16.48;100.00
66681;BME280;53575;51.366;12.350;2023-05-23T03:57:56;99883.84;;;16.45;100.00
66681;BME280;53575;51.366;12.350;2023-05-23T04:00:21;99882.09;;;16.44;100.00
66681;BME280;53575;51.366;12.350;2023-05-23T04:02:47;99884.88;;;16.41;100.00
66681;BME280;53575;51.366;12.350;2023-05-23T04:05:14;99888.41;;;16.40;100.00
66681;BME280;53575;51.366;12.350;2023-05-23T04:07:39;99896.66;;;16.31;100.00
66681;BME280;53575;51.366;12.350;2023-05-23T04:10:06;99894.78;;;16.35;100.00
66681;BME280;53575;51.366;12.350;2023-05-23T04:12:32;99897.69;;;16.27;100.00
66681;BME280;53575;51.366;12.350;2023-05-23T04:14:57;99895.75;;;16.32;100.00
66681;BME280;53575;51.366;12.350;2023-05-23T04:17:23;99896.78;;;16.28;100.00
66681;BME280;53575;51.366;12.350;2023-05-23T04:19:50;99897.59;;;16.30;100.00
66681;BME280;53575;51.366;12.350;2023-05-23T04:22:15;99902.13;;;16.26;100.00
66681;BME280;53575;51.366;12.350;2023-05-23T04:24:41;99906.41;;;16.29;100.00
66681;BME280;53575;51.366;12.350;2023-05-23T04:27:06;99911.81;;;16.26;100.00
66681;BME280;53575;51.366;12.350;2023-05-23T04:29:33;99909.09;;;16.27;100.00
66681;BME280;53575;51.366;12.350;2023-05-23T04:32:00;99912.88;;;16.20;100.00
66681;BME280;53575;51.366;12.350;2023-05-23T04:34:26;99908.78;;;16.12;100.00
66681;BME280;53575;51.366;12.350;2023-05-23T04:36:51;99914.06;;;16.12;100.00
66681;BME280;53575;51.366;12.350;2023-05-23T04:39:18;99918.41;;;16.13;100.00
66681;BME280;53575;51.366;12.350;2023-05-23T04:41:44;99912.28;;;16.12;100.00
66681;BME280;53575;51.366;12.350;2023-05-23T04:44:10;99915.59;;;16.17;100.00
66681;BME280;53575;51.366;12.350;2023-05-23T04:46:35;99912.66;;;16.01;100.00
66681;BME280;53575;51.366;12.350;2023-05-23T04:49:01;99915.00;;;16.11;100.00
66681;BME280;53575;51.366;12.350;2023-05-23T04:51:28;99927.28;;;16.10;100.00
66681;BME280;53575;51.366;12.350;2023-05-23T04:53:53;99928.09;;;16.12;100.00
66681;BME280;53575;51.366;12.350;2023-05-23T04:56:19;99930.28;;;16.24;100.00
66681;BME280;53575;51.366;12.350;2023-05-23T04:58:45;99937.94;;;16.32;100.00
66681;BME280;53575;51.366;12.350;2023-05-23T05:01:11;99936.81;;;16.39;100.00
66681;BME280;53575;51.366;12.350;2023-05-23T05:03:38;99940.28;;;16.40;100.00
66681;BME280;53575;51.366;12.350;2023-05-23T05:06:04;99938.84;;;16.31;100.00
66681;BME280;53575;51.366;12.350;2023-05-23T05:08:30;99937.06;;;16.31;100.00
66681;BME280;53575;51.366;12.350;2023-05-23T05:10:56;99941.16;;;16.40;100.00
66681;BME280;53575;51.366;12.350;2023-05-23T05:13:21;99940.19;;;16.43;100.00
66681;BME280;53575;51.366;12.350;2023-05-23T05:15:47;99934.72;;;16.49;100.00
66681;BME280;53575;51.366;12.350;2023-05-23T05:18:12;99948.28;;;16.62;100.00
66681;BME280;53575;51.366;12.350;2023-05-23T05:20:38;99941.81;;;16.70;100.00
66681;BME280;53575;51.366;12.350;2023-05-23T05:23:03;99939.47;;;16.86;100.00
66681;BME280;53575;51.366;12.350;2023-05-23T05:25:28;99949.59;;;16.98;100.00
66681;BME280;53575;51.366;12.350;2023-05-23T05:27:59;99953.03;;;17.00;100.00
66681;BME280;53575;51.366;12.350;2023-05-23T05:30:26;99953.69;;;17.05;100.00
66681;BME280;53575;51.366;12.350;2023-05-23T05:32:51;99960.84;;;17.03;100.00
66681;BME280;53575;51.366;12.350;2023-05-23T05:35:17;99964.03;;;17.12;100.00
66681;BME280;53575;51.366;12.350;2023-05-23T05:37:42;99961.22;;;17.16;100.00
66681;BME280;53575;51.366;12.350;2023-05-23T05:40:09;99959.78;;;17.08;100.00
66681;BME280;53575;51.366;12.350;2023-05-23T05:42:34;99952.56;;;16.89;100.00
66681;BME280;53575;51.366;12.350;2023-05-23T05:45:00;99960.50;;;16.89;100.00
66681;BME280;53575;51.366;12.350;2023-05-23T05:47:25;99960.19;;;16.97;100.00
66681;BME280;53575;51.366;12.350;2023-05-23T05:49:51;99965.28;;;17.01;100.00
66681;BME280;53575;51.366;12.350;2023-05-23T05:52:16;99957.84;;;16.89;100.00
66681;BME280;53575;51.366;12.350;2023-05-23T05:54:42;99966.59;;;16.91;100.00
66681;BME280;53575;51.366;12.350;2023-05-23T05:57:07;99963.09;;;16.91;100.00
66681;BME280;53575;51.366;12.350;2023-05-23T05:59:32;99967.91;;;17.03;100.00
66681;BME280;53575;51.366;12.350;2023-05-23T06:01:58;99969.78;;;16.99;100.00
66681;BME280;53575;51.366;12.350;2023-05-23T06:04:23;99977.91;;;17.17;100.00
66681;BME280;53575;51.366;12.350;2023-05-23T06:06:49;99973.00;;;17.08;100.00
66681;BME280;53575;51.366;12.350;2023-05-23T06:09:15;99970.06;;;17.15;100.00
66681;BME280;53575;51.366;12.350;2023-05-23T06:11:40;99970.88;;;17.17;100.00
66681;BME280;53575;51.366;12.350;2023-05-23T06:14:06;99979.47;;;17.22;99.89
66681;BME280;53575;51.366;12.350;2023-05-23T06:16:32;99988.28;;;16.99;100.00
66681;BME280;53575;51.366;12.350;2023-05-23T06:18:57;99973.78;;;16.86;100.00
66681;BME280;53575;51.366;12.350;2023-05-23T06:21:22;99983.56;;;16.84;100.00
66681;BME280;53575;51.366;12.350;2023-05-23T06:23:48;99986.19;;;16.84;100.00
66681;BME280;53575;51.366;12.350;2023-05-23T06:26:13;99977.53;;;16.80;100.00
66681;BME280;53575;51.366;12.350;2023-05-23T06:28:39;99985.78;;;16.71;100.00
66681;BME280;53575;51.366;12.350;2023-05-23T06:31:04;99984.09;;;16.69;100.00
66681;BME280;53575;51.366;12.350;2023-05-23T06:33:31;99979.75;;;16.68;100.00
66681;BME280;53575;51.366;12.350;2023-05-23T06:35:56;99980.78;;;16.64;100.00
66681;BME280;53575;51.366;12.350;2023-05-23T06:38:22;99983.16;;;16.70;100.00
66681;BME280;53575;51.366;12.350;2023-05-23T06:40:47;99988.91;;;16.57;100.00
66681;BME280;53575;51.366;12.350;2023-05-23T06:43:12;100009.16;;;16.57;100.00
66681;BME280;53575;51.366;12.350;2023-05-23T06:45:38;100009.94;;;16.34;100.00
66681;BME280;53575;51.366;12.350;2023-05-23T06:48:03;99999.59;;;16.03;100.00
66681;BME280;53575;51.366;12.350;2023-05-23T06:50:29;100012.19;;;15.93;100.00
66681;BME280;53575;51.366;12.350;2023-05-23T06:52:54;100015.91;;;15.88;100.00
66681;BME280;53575;51.366;12.350;2023-05-23T06:55:21;100014.16;;;15.87;100.00
66681;BME280;53575;51.366;12.350;2023-05-23T06:57:47;100013.63;;;15.77;100.00
66681;BME280;53575;51.366;12.350;2023-05-23T07:00:16;100025.81;;;15.79;98.80
66681;BME280;53575;51.366;12.350;2023-05-23T07:02:42;100015.28;;;15.79;96.88
66681;BME280;53575;51.366;12.350;2023-05-23T07:05:09;100015.09;;;15.86;96.69
66681;BME280;53575;51.366;12.350;2023-05-23T07:07:35;100012.28;;;15.90;96.03
66681;BME280;53575;51.366;12.350;2023-05-23T07:10:00;100020.16;;;15.92;95.77
66681;BME280;53575;51.366;12.350;2023-05-23T07:12:26;100007.50;;;16.03;94.60
66681;BME280;53575;51.366;12.350;2023-05-23T07:14:51;100016.72;;;16.16;93.50
66681;BME280;53575;51.366;12.350;2023-05-23T07:17:16;100026.13;;;16.23;91.03
66681;BME280;53575;51.366;12.350;2023-05-23T07:19:42;100020.69;;;16.28;90.54
66681;BME280;53575;51.366;12.350;2023-05-23T07:22:07;100018.75;;;16.33;89.45
66681;BME280;53575;51.366;12.350;2023-05-23T07:24:32;100016.84;;;16.38;88.89
66681;BME280;53575;51.366;12.350;2023-05-23T07:26:58;100022.59;;;16.49;88.52
66681;BME280;53575;51.366;12.350;2023-05-23T07:29:23;100018.72;;;16.60;88.28
66681;BME280;53575;51.366;12.350;2023-05-23T07:31:49;100026.78;;;16.55;87.48
66681;BME280;53575;51.366;12.350;2023-05-23T07:34:14;100025.28;;;16.48;87.55
66681;BME280;53575;51.366;12.350;2023-05-23T07:36:40;100030.69;;;16.45;88.51
66681;BME280;53575;51.366;12.350;2023-05-23T07:39:07;100023.63;;;16.45;88.10
66681;BME280;53575;51.366;12.350;2023-05-23T07:41:32;100033.19;;;16.48;88.27
66681;BME280;53575;51.366;12.350;2023-05-23T07:43:57;100026.84;;;16.53;87.23
66681;BME280;53575;51.366;12.350;2023-05-23T07:46:23;100031.00;;;16.61;87.47
66681;BME280;53575;51.366;12.350;2023-05-23T07:48:48;100033.81;;;16.56;87.52
66681;BME280;53575;51.366;12.350;2023-05-23T07:51:14;100025.50;;;16.67;87.20
66681;BME280;53575;51.366;12.350;2023-05-23T07:53:39;100033.47;;;16.65;87.26
66681;BME280;53575;51.366;12.350;2023-05-23T07:56:05;100039.59;;;16.66;87.00
66681;BME280;53575;51.366;12.350;2023-05-23T07:58:31;100041.56;;;16.61;87.11
66681;BME280;53575;51.366;12.350;2023-05-23T08:00:56;100043.44;;;16.57;87.35
66681;BME280;53575;51.366;12.350;2023-05-23T08:03:22;100042.88;;;16.47;88.14
66681;BME280;53575;51.366;12.350;2023-05-23T08:05:48;100043.59;;;16.52;87.58
66681;BME280;53575;51.366;12.350;2023-05-23T08:08:14;100042.78;;;16.50;87.86
66681;BME280;53575;51.366;12.350;2023-05-23T08:10:39;100036.19;;;16.64;87.68
66681;BME280;53575;51.366;12.350;2023-05-23T08:13:05;100042.06;;;16.70;87.14
66681;BME280;53575;51.366;12.350;2023-05-23T08:15:31;100040.28;;;16.71;86.67
66681;BME280;53575;51.366;12.350;2023-05-23T08:17:58;100047.34;;;16.70;86.78
66681;BME280;53575;51.366;12.350;2023-05-23T08:20:24;100055.22;;;16.72;86.54
66681;BME280;53575;51.366;12.350;2023-05-23T08:22:58;100053.63;;;16.68;87.63
66681;BME280;53575;51.366;12.350;2023-05-23T08:25:25;100057.00;;;16.71;87.65
66681;BME280;53575;51.366;12.350;2023-05-23T08:27:55;100055.94;;;16.77;87.72
66681;BME280;53575;51.366;12.350;2023-05-23T08:30:21;100054.56;;;16.90;87.33
66681;BME280;53575;51.366;12.350;2023-05-23T08:32:47;100055.47;;;16.91;87.16
66681;BME280;53575;51.366;12.350;2023-05-23T08:35:13;100063.13;;;16.97;86.27
66681;BME280;53575;51.366;12.350;2023-05-23T08:37:38;100052.22;;;16.83;86.55
66681;BME280;53575;51.366;12.350;2023-05-23T08:40:06;100050.13;;;16.92;87.39
66681;BME280;53575;51.366;12.350;2023-05-23T08:42:33;100055.06;;;17.01;86.65
66681;BME280;53575;51.366;12.350;2023-05-23T08:44:58;100058.06;;;17.16;85.55
66681;BME280;53575;51.366;12.350;2023-05-23T08:47:24;100058.88;;;17.18;84.91
66681;BME280;53575;51.366;12.350;2023-05-23T08:49:51;100060.22;;;17.28;85.25
66681;BME280;53575;51.366;12.350;2023-05-23T08:52:20;100064.06;;;17.43;84.80
66681;BME280;53575;51.366;12.350;2023-05-23T08:54:49;100061.38;;;17.66;83.95
66681;BME280;53575;51.366;12.350;2023-05-23T08:57:15;100067.50;;;17.68;83.49
66681;BME280;53575;51.366;12.350;2023-05-23T08:59:41;100067.00;;;17.82;83.09
66681;BME280;53575;51.366;12.350;2023-05-23T09:02:10;100067.00;;;17.82;82.05
66681;BME280;53575;51.366;12.350;2023-05-23T09:04:38;100059.44;;;17.71;82.79
66681;BME280;53575;51.366;12.350;2023-05-23T09:07:03;100062.47;;;17.84;82.50
66681;BME280;53575;51.366;12.350;2023-05-23T09:09:29;100070.41;;;17.84;82.03
66681;BME280;53575;51.366;12.350;2023-05-23T09:11:57;100068.34;;;17.69;82.77
66681;BME280;53575;51.366;12.350;2023-05-23T09:14:23;100079.00;;;17.67;83.52
66681;BME280;53575;51.366;12.350;2023-05-23T09:16:49;100079.28;;;17.60;84.42
66681;BME280;53575;51.366;12.350;2023-05-23T09:19:14;100079.97;;;17.41;85.17
66681;BME280;53575;51.366;12.350;2023-05-23T09:21:44;100081.88;;;17.38;86.06
66681;BME280;53575;51.366;12.350;2023-05-23T09:24:10;100080.47;;;17.29;86.77
66681;BME280;53575;51.366;12.350;2023-05-23T09:26:36;100087.75;;;17.22;87.39
66681;BME280;53575;51.366;12.350;2023-05-23T09:29:05;100083.66;;;17.14;88.24
66681;BME280;53575;51.366;12.350;2023-05-23T09:31:31;100085.59;;;17.09;88.87
66681;BME280;53575;51.366;12.350;2023-05-23T09:33:57;100081.34;;;17.04;88.93
66681;BME280;53575;51.366;12.350;2023-05-23T09:36:26;100086.69;;;17.03;89.21
66681;BME280;53575;51.366;12.350;2023-05-23T09:38:53;100088.75;;;16.95;89.37
66681;BME280;53575;51.366;12.350;2023-05-23T09:41:19;100082.94;;;16.85;90.25
66681;BME280;53575;51.366;12.350;2023-05-23T09:43:53;100078.41;;;16.89;90.93
66681;BME280;53575;51.366;12.350;2023-05-23T09:46:20;100087.06;;;16.92;90.81
66681;BME280;53575;51.366;12.350;2023-05-23T09:48:48;100086.59;;;16.81;91.16
66681;BME280;53575;51.366;12.350;2023-05-23T09:51:17;100084.22;;;16.73;91.92
66681;BME280;53575;51.366;12.350;2023-05-23T09:53:43;100091.09;;;16.79;91.44
66681;BME280;53575;51.366;12.350;2023-05-23T09:56:09;100087.91;;;16.68;93.15
66681;BME280;53575;51.366;12.350;2023-05-23T09:58:37;100084.06;;;16.78;93.02
66681;BME280;53575;51.366;12.350;2023-05-23T10:01:06;100088.38;;;16.80;90.73
66681;BME280;53575;51.366;12.350;2023-05-23T10:03:41;100083.34;;;16.73;91.95
66681;BME280;53575;51.366;12.350;2023-05-23T10:06:43;100085.84;;;16.77;93.23
66681;BME280;53575;51.366;12.350;2023-05-23T10:09:12;100087.63;;;16.77;93.83
66681;BME280;53575;51.366;12.350;2023-05-23T10:14:28;100097.91;;;16.85;92.48
66681;BME280;53575;51.366;12.350;2023-05-23T10:17:06;100089.06;;;16.86;92.96
66681;BME280;53575;51.366;12.350;2023-05-23T10:19:59;100095.31;;;16.83;93.49
66681;BME280;53575;51.366;12.350;2023-05-23T10:22:26;100086.13;;;16.95;91.73
66681;BME280;53575;51.366;12.350;2023-05-23T10:24:52;100090.09;;;17.07;91.32
66681;BME280;53575;51.366;12.350;2023-05-23T10:27:18;100092.63;;;17.10;90.93
66681;BME280;53575;51.366;12.350;2023-05-23T10:29:44;100085.75;;;17.04;90.35
66681;BME280;53575;51.366;12.350;2023-05-23T10:32:11;100082.38;;;17.00;89.55
66681;BME280;53575;51.366;12.350;2023-05-23T10:37:17;100078.69;;;17.04;89.28
66681;BME280;53575;51.366;12.350;2023-05-23T10:40:04;100085.25;;;16.94;89.99
66681;BME280;53575;51.366;12.350;2023-05-23T10:45:18;100100.97;;;16.71;89.68
66681;BME280;53575;51.366;12.350;2023-05-23T10:47:46;100101.91;;;16.70;90.11
66681;BME280;53575;51.366;12.350;2023-05-23T10:50:13;100103.09;;;16.61;88.36
66681;BME280;53575;51.366;12.350;2023-05-23T10:52:40;100102.22;;;16.61;88.01
66681;BME280;53575;51.366;12.350;2023-05-23T10:55:13;100106.25;;;16.71;86.56
66681;BME280;53575;51.366;12.350;2023-05-23T10:57:39;100111.47;;;16.74;85.91
66681;BME280;53575;51.366;12.350;2023-05-23T11:00:13;100106.47;;;16.91;85.07
66681;BME280;53575;51.366;12.350;2023-05-23T11:02:46;100110.06;;;17.14;83.61
66681;BME280;53575;51.366;12.350;2023-05-23T11:05:22;100112.00;;;17.32;82.38
66681;BME280;53575;51.366;12.350;2023-05-23T11:08:08;100112.88;;;17.56;81.47
66681;BME280;53575;51.366;12.350;2023-05-23T11:10:59;100125.81;;;17.87;79.08
66681;BME280;53575;51.366;12.350;2023-05-23T11:13:25;100129.88;;;17.96;78.34
66681;BME280;53575;51.366;12.350;2023-05-23T11:16:39;100122.59;;;17.79;78.23
66681;BME280;53575;51.366;12.350;2023-05-23T11:24:11;100132.91;;;17.15;81.97
66681;BME280;53575;51.366;12.350;2023-05-23T11:26:37;100136.63;;;17.09;82.42
66681;BME280;53575;51.366;12.350;2023-05-23T11:29:07;100147.78;;;16.92;83.60
66681;BME280;53575;51.366;12.350;2023-05-23T11:31:37;100143.31;;;16.68;86.80
66681;BME280;53575;51.366;12.350;2023-05-23T11:34:02;100146.25;;;16.58;88.55
66681;BME280;53575;51.366;12.350;2023-05-23T11:36:28;100150.75;;;16.56;89.47
66681;BME280;53575;51.366;12.350;2023-05-23T11:38:54;100157.19;;;16.20;91.21
66681;BME280;53575;51.366;12.350;2023-05-23T11:41:19;100157.19;;;16.20;90.23
66681;BME280;53575;51.366;12.350;2023-05-23T11:43:52;100151.09;;;16.18;90.50
66681;BME280;53575;51.366;12.350;2023-05-23T11:46:18;100160.06;;;16.12;91.33
66681;BME280;53575;51.366;12.350;2023-05-23T11:48:47;100157.03;;;16.24;90.56
66681;BME280;53575;51.366;12.350;2023-05-23T11:51:13;100154.81;;;16.12;90.94
66681;BME280;53575;51.366;12.350;2023-05-23T11:53:39;100156.97;;;15.99;90.39
66681;BME280;53575;51.366;12.350;2023-05-23T11:56:05;100160.00;;;15.86;91.68
66681;BME280;53575;51.366;12.350;2023-05-23T11:58:36;100157.16;;;15.62;94.42
66681;BME280;53575;51.366;12.350;2023-05-23T12:01:03;100165.75;;;15.39;97.26
66681;BME280;53575;51.366;12.350;2023-05-23T12:03:29;100172.22;;;15.27;98.76
66681;BME280;53575;51.366;12.350;2023-05-23T12:05:56;100166.81;;;15.32;100.00
66681;BME280;53575;51.366;12.350;2023-05-23T12:08:21;100174.56;;;15.38;98.10
66681;BME280;53575;51.366;12.350;2023-05-23T12:10:57;100170.06;;;15.42;96.97
66681;BME280;53575;51.366;12.350;2023-05-23T12:13:24;100170.34;;;15.31;96.45
66681;BME280;53575;51.366;12.350;2023-05-23T12:15:58;100175.53;;;15.34;97.02
66681;BME280;53575;51.366;12.350;2023-05-23T12:18:27;100175.50;;;15.35;97.92
66681;BME280;53575;51.366;12.350;2023-05-23T12:20:54;100168.44;;;15.36;98.00
66681;BME280;53575;51.366;12.350;2023-05-23T12:23:20;100174.63;;;15.35;97.10
66681;BME280;53575;51.366;12.350;2023-05-23T12:25:53;100180.88;;;15.31;98.65
66681;BME280;53575;51.366;12.350;2023-05-23T12:28:20;100165.75;;;15.06;98.87
66681;BME280;53575;51.366;12.350;2023-05-23T12:30:46;100173.34;;;15.19;99.33
66681;BME280;53575;51.366;12.350;2023-05-23T12:33:12;100179.25;;;15.27;95.47
66681;BME280;53575;51.366;12.350;2023-05-23T12:35:42;100176.41;;;15.34;94.61
66681;BME280;53575;51.366;12.350;2023-05-23T12:38:09;100176.34;;;15.36;92.55
66681;BME280;53575;51.366;12.350;2023-05-23T12:40:34;100176.84;;;15.49;91.75
66681;BME280;53575;51.366;12.350;2023-05-23T12:43:00;100188.38;;;15.46;90.62
66681;BME280;53575;51.366;12.350;2023-05-23T12:45:33;100193.13;;;15.63;89.62
66681;BME280;53575;51.366;12.350;2023-05-23T12:47:59;100182.47;;;15.69;89.41
66681;BME280;53575;51.366;12.350;2023-05-23T12:50:26;100185.00;;;15.72;87.56
66681;BME280;53575;51.366;12.350;2023-05-23T12:52:51;100205.81;;;15.50;89.25
66681;BME280;53575;51.366;12.350;2023-05-23T12:55:17;100191.34;;;15.34;89.94
66681;BME280;53575;51.366;12.350;2023-05-23T12:57:42;100183.72;;;15.54;89.15
66681;BME280;53575;51.366;12.350;2023-05-23T13:00:09;100194.66;;;15.41;90.37
66681;BME280;53575;51.366;12.350;2023-05-23T13:02:34;100196.28;;;15.45;90.43